createdAt,value
2022-09-27T00:01:26.760Z,100725.00
2022-09-27T00:03:56.725Z,100726.00
2022-09-27T00:06:29.188Z,100722.00
2022-09-27T00:09:01.398Z,100726.00
2022-09-27T00:11:35.230Z,100724.00
2022-09-27T00:14:05.547Z,100722.00
2022-09-27T00:16:37.842Z,100717.00
2022-09-27T00:19:10.040Z,100719.00
2022-09-27T00:21:39.480Z,100715.00
2022-09-27T00:24:14.362Z,100717.00
2022-09-27T00:26:43.398Z,100716.00
2022-09-27T00:29:12.668Z,100716.00
2022-09-27T00:31:42.133Z,100718.00
2022-09-27T00:34:19.648Z,100715.00
2022-09-27T00:36:48.946Z,100725.00
2022-09-27T00:39:19.824Z,100718.00
2022-09-27T00:41:48.942Z,100710.00
2022-09-27T00:45:02.311Z,100713.00
2022-09-27T00:47:42.171Z,100715.00
2022-09-27T00:50:24.378Z,100722.00
2022-09-27T00:53:05.163Z,100722.00
2022-09-27T00:55:41.359Z,100720.00
2022-09-27T00:58:12.004Z,100718.00
2022-09-27T01:00:46.917Z,100719.00
2022-09-27T01:03:35.620Z,100716.00
2022-09-27T01:06:05.257Z,100721.00
2022-09-27T01:08:34.293Z,100715.00
2022-09-27T01:11:20.272Z,100719.00
2022-09-27T01:14:12.347Z,100713.00
2022-09-27T01:16:54.254Z,100716.00
2022-09-27T01:20:08.398Z,100713.00
2022-09-27T01:22:46.902Z,100714.00
2022-09-27T01:25:43.281Z,100716.00
2022-09-27T01:28:47.979Z,100717.00
2022-09-27T01:31:31.061Z,100713.00
2022-09-27T01:34:07.433Z,100715.00
2022-09-27T01:36:47.649Z,100719.00
2022-09-27T01:39:34.855Z,100725.00
2022-09-27T01:42:29.048Z,100719.00
2022-09-27T01:45:07.138Z,100722.00
2022-09-27T01:47:52.282Z,100721.00
2022-09-27T01:50:51.209Z,100723.00
2022-09-27T01:53:25.417Z,100725.00
2022-09-27T01:56:13.870Z,100720.00
2022-09-27T01:58:57.949Z,100720.00
2022-09-27T02:01:32.256Z,100717.00
2022-09-27T02:04:04.969Z,100714.00
2022-09-27T02:07:03.923Z,100718.00
2022-09-27T02:09:42.756Z,100722.00
2022-09-27T02:12:27.359Z,100725.00
2022-09-27T02:15:04.313Z,100725.00
2022-09-27T02:17:48.951Z,100721.00
2022-09-27T02:20:28.748Z,100722.00
2022-09-27T02:23:16.257Z,100722.00
2022-09-27T02:25:58.380Z,100728.00
2022-09-27T02:28:34.535Z,100724.00
2022-09-27T02:31:03.894Z,100729.00
2022-09-27T02:33:42.679Z,100723.00
2022-09-27T02:36:12.976Z,100717.00
2022-09-27T02:38:43.481Z,100724.00
2022-09-27T02:41:17.074Z,100726.00
2022-09-27T02:43:50.579Z,100732.00
2022-09-27T02:46:41.646Z,100732.00
2022-09-27T02:49:30.614Z,100730.00
2022-09-27T02:52:38.441Z,100723.00
2022-09-27T02:55:20.057Z,100734.00
2022-09-27T02:58:18.987Z,100736.00
2022-09-27T03:01:34.098Z,100738.00
2022-09-27T03:04:21.046Z,100735.00
2022-09-27T03:06:51.949Z,100727.00
2022-09-27T03:09:25.706Z,100725.00
2022-09-27T03:11:54.749Z,100731.00
2022-09-27T03:14:23.586Z,100728.00
2022-09-27T03:17:16.026Z,100726.00
2022-09-27T03:20:14.097Z,100736.00
2022-09-27T03:22:54.768Z,100733.00
2022-09-27T03:25:25.463Z,100738.00
2022-09-27T03:27:54.230Z,100739.00
2022-09-27T03:30:23.157Z,100733.00
2022-09-27T03:32:52.074Z,100734.00
2022-09-27T03:35:44.382Z,100742.00
2022-09-27T03:38:13.380Z,100732.00
2022-09-27T03:40:44.503Z,100737.00
2022-09-27T03:43:13.753Z,100733.00
2022-09-27T03:45:45.460Z,100731.00
2022-09-27T03:48:14.510Z,100739.00
2022-09-27T03:50:44.817Z,100732.00
2022-09-27T03:53:13.832Z,100741.00
2022-09-27T03:55:48.108Z,100747.00
2022-09-27T03:58:17.053Z,100741.00
2022-09-27T04:00:48.390Z,100751.00
2022-09-27T04:03:17.704Z,100750.00
2022-09-27T04:06:05.392Z,100747.00
2022-09-27T04:08:39.860Z,100750.00
2022-09-27T04:11:10.677Z,100747.00
2022-09-27T04:13:41.340Z,100748.00
2022-09-27T04:16:10.102Z,100744.00
2022-09-27T04:19:10.897Z,100744.00
2022-09-27T04:21:40.628Z,100748.00
2022-09-27T04:24:12.161Z,100741.00
2022-09-27T04:26:47.712Z,100736.00
2022-09-27T04:29:20.027Z,100743.00
2022-09-27T04:31:52.897Z,100746.00
2022-09-27T04:34:50.474Z,100743.00
2022-09-27T04:37:24.541Z,100739.00
2022-09-27T04:39:57.135Z,100740.00
2022-09-27T04:42:28.801Z,100749.00
2022-09-27T04:44:57.706Z,100746.00
2022-09-27T04:47:26.374Z,100747.00
2022-09-27T04:49:55.173Z,100756.00
2022-09-27T04:52:24.212Z,100755.00
2022-09-27T04:55:01.630Z,100757.00
2022-09-27T04:57:34.800Z,100756.00
2022-09-27T05:00:04.773Z,100761.00
2022-09-27T05:02:34.057Z,100760.00
2022-09-27T05:05:28.807Z,100755.00
2022-09-27T05:07:57.548Z,100754.00
2022-09-27T05:10:36.749Z,100763.00
2022-09-27T05:13:07.523Z,100762.00
2022-09-27T05:15:36.679Z,100759.00
2022-09-27T05:18:27.069Z,100753.00
2022-09-27T05:21:14.556Z,100762.00
2022-09-27T05:23:48.133Z,100755.00
2022-09-27T05:26:17.315Z,100757.00
2022-09-27T05:28:47.696Z,100757.00
2022-09-27T05:31:18.044Z,100753.00
2022-09-27T05:33:46.795Z,100757.00
2022-09-27T05:36:45.987Z,100749.00
2022-09-27T05:39:16.833Z,100756.00
2022-09-27T05:41:46.388Z,100759.00
2022-09-27T05:44:16.776Z,100761.00
2022-09-27T05:46:55.185Z,100761.00
2022-09-27T05:49:24.195Z,100768.00
2022-09-27T05:51:52.904Z,100768.00
2022-09-27T05:54:22.360Z,100771.00
2022-09-27T05:56:51.495Z,100769.00
2022-09-27T05:59:41.252Z,100775.00
2022-09-27T06:02:22.099Z,100774.00
2022-09-27T06:05:10.272Z,100776.00
2022-09-27T06:08:02.596Z,100780.00
2022-09-27T06:10:37.737Z,100783.00
2022-09-27T06:13:11.436Z,100776.00
2022-09-27T06:15:47.495Z,100771.00
2022-09-27T06:18:18.227Z,100774.00
2022-09-27T06:20:49.564Z,100782.00
2022-09-27T06:23:23.057Z,100786.00
2022-09-27T06:25:53.569Z,100789.00
2022-09-27T06:28:24.924Z,100785.00
2022-09-27T06:31:00.600Z,100787.00
2022-09-27T06:33:50.197Z,100799.00
2022-09-27T06:36:19.906Z,100790.00
2022-09-27T06:38:49.886Z,100793.00
2022-09-27T06:41:24.497Z,100797.00
2022-09-27T06:44:14.745Z,100797.00
2022-09-27T06:47:23.851Z,100797.00
2022-09-27T06:50:11.717Z,100806.00
2022-09-27T06:52:48.526Z,100798.00
2022-09-27T06:55:18.253Z,100811.00
2022-09-27T06:58:04.518Z,100803.00
2022-09-27T07:00:33.939Z,100796.00
2022-09-27T07:03:35.421Z,100802.00
2022-09-27T07:06:22.583Z,100809.00
2022-09-27T07:08:57.144Z,100807.00
2022-09-27T07:11:26.263Z,100806.00
2022-09-27T07:13:56.570Z,100811.00
2022-09-27T07:16:25.371Z,100810.00
2022-09-27T07:18:55.576Z,100811.00
2022-09-27T07:21:24.626Z,100819.00
2022-09-27T07:23:53.880Z,100814.00
2022-09-27T07:26:22.913Z,100813.00
2022-09-27T07:28:53.344Z,100813.00
2022-09-27T07:31:24.533Z,100812.00
2022-09-27T07:33:56.227Z,100817.00
2022-09-27T07:36:24.985Z,100820.00
2022-09-27T07:38:58.252Z,100821.00
2022-09-27T07:41:27.688Z,100827.00
2022-09-27T07:43:57.297Z,100828.00
2022-09-27T07:46:27.163Z,100827.00
2022-09-27T07:49:00.220Z,100821.00
2022-09-27T07:51:59.029Z,100824.00
2022-09-27T07:55:03.228Z,100820.00
2022-09-27T07:57:51.464Z,100822.00
2022-09-27T08:00:21.240Z,100821.00
2022-09-27T08:02:50.374Z,100821.00
2022-09-27T08:05:20.955Z,100819.00
2022-09-27T08:07:56.505Z,100827.00
2022-09-27T08:10:31.614Z,100825.00
2022-09-27T08:13:03.641Z,100835.00
2022-09-27T08:15:33.638Z,100821.00
2022-09-27T08:18:03.380Z,100823.00
2022-09-27T08:20:51.706Z,100822.00
2022-09-27T08:23:28.642Z,100823.00
2022-09-27T08:26:12.510Z,100818.00
2022-09-27T08:29:04.104Z,100823.00
2022-09-27T08:31:35.786Z,100827.00
2022-09-27T08:34:05.176Z,100822.00
2022-09-27T08:36:37.520Z,100826.00
2022-09-27T08:39:06.871Z,100826.00
2022-09-27T08:41:58.431Z,100827.00
2022-09-27T08:44:41.009Z,100835.00
2022-09-27T08:47:26.482Z,100833.00
2022-09-27T08:50:02.513Z,100843.00
2022-09-27T08:52:41.498Z,100843.00
2022-09-27T08:55:29.430Z,100838.00
2022-09-27T08:58:01.146Z,100839.00
2022-09-27T09:00:32.125Z,100835.00
2022-09-27T09:03:04.181Z,100834.00
2022-09-27T09:05:38.290Z,100830.00
2022-09-27T09:08:42.088Z,100829.00
2022-09-27T09:11:48.398Z,100830.00
2022-09-27T09:14:46.312Z,100843.00
2022-09-27T09:17:36.531Z,100835.00
2022-09-27T09:20:59.971Z,100831.00
2022-09-27T09:24:13.507Z,100843.00
2022-09-27T09:26:57.341Z,100837.00
2022-09-27T09:29:50.914Z,100836.00
2022-09-27T09:32:39.514Z,100833.00
2022-09-27T09:35:17.439Z,100836.00
2022-09-27T09:37:51.119Z,100831.00
2022-09-27T09:40:29.548Z,100831.00
2022-09-27T09:43:05.827Z,100835.00
2022-09-27T09:45:41.689Z,100836.00
2022-09-27T09:48:28.733Z,100839.00
2022-09-27T09:51:03.588Z,100846.00
2022-09-27T09:53:47.649Z,100847.00
2022-09-27T09:56:32.491Z,100849.00
2022-09-27T09:59:05.933Z,100844.00
2022-09-27T10:01:44.368Z,100846.00
2022-09-27T10:04:21.561Z,100850.00
2022-09-27T10:06:51.636Z,100848.00
2022-09-27T10:09:26.576Z,100851.00
2022-09-27T10:12:15.507Z,100834.00
2022-09-27T10:14:51.389Z,100836.00
2022-09-27T10:17:28.465Z,100843.00
2022-09-27T10:20:01.207Z,100835.00
2022-09-27T10:22:38.914Z,100839.00
2022-09-27T10:25:18.652Z,100833.00
2022-09-27T10:28:05.264Z,100829.00
2022-09-27T10:30:38.542Z,100845.00
2022-09-27T10:33:20.264Z,100836.00
2022-09-27T10:36:00.433Z,100846.00
2022-09-27T10:38:38.489Z,100832.00
2022-09-27T10:41:29.104Z,100835.00
2022-09-27T10:47:11.723Z,100837.00
2022-09-27T10:49:55.129Z,100839.00
2022-09-27T10:52:46.713Z,100849.00
2022-09-27T10:55:25.287Z,100849.00
2022-09-27T10:57:58.303Z,100849.00
2022-09-27T11:00:34.413Z,100845.00
2022-09-27T11:03:16.754Z,100851.00
2022-09-27T11:05:47.623Z,100847.00
2022-09-27T11:08:32.726Z,100848.00
2022-09-27T11:11:30.312Z,100853.00
2022-09-27T11:14:11.523Z,100851.00
2022-09-27T11:17:20.057Z,100850.00
2022-09-27T11:20:25.681Z,100851.00
2022-09-27T11:23:31.038Z,100847.00
2022-09-27T11:26:37.432Z,100850.00
2022-09-27T11:29:32.350Z,100847.00
2022-09-27T11:33:02.054Z,100848.00
2022-09-27T11:35:57.124Z,100846.00
2022-09-27T11:38:52.187Z,100848.00
2022-09-27T11:41:50.733Z,100849.00
2022-09-27T11:45:13.298Z,100844.00
2022-09-27T11:47:58.709Z,100838.00
2022-09-27T11:51:03.922Z,100838.00
2022-09-27T11:54:05.923Z,100844.00
2022-09-27T11:56:50.261Z,100839.00
2022-09-27T12:00:13.957Z,100844.00
2022-09-27T12:03:38.566Z,100838.00
2022-09-27T12:06:23.330Z,100839.00
2022-09-27T12:09:04.746Z,100836.00
2022-09-27T12:11:42.640Z,100834.00
2022-09-27T12:14:26.722Z,100836.00
2022-09-27T12:16:59.141Z,100838.00
2022-09-27T12:19:36.382Z,100832.00
2022-09-27T12:22:29.773Z,100847.00
2022-09-27T12:25:20.344Z,100835.00
2022-09-27T12:28:10.013Z,100838.00
2022-09-27T12:30:49.151Z,100834.00
2022-09-27T12:33:34.099Z,100844.00
2022-09-27T12:36:10.598Z,100836.00
2022-09-27T12:38:57.594Z,100837.00
2022-09-27T12:41:28.597Z,100833.00
2022-09-27T12:44:17.784Z,100832.00
2022-09-27T12:47:15.184Z,100828.00
2022-09-27T12:50:01.675Z,100824.00
2022-09-27T12:52:38.349Z,100817.00
2022-09-27T12:55:43.012Z,100822.00
2022-09-27T12:59:00.628Z,100822.00
2022-09-27T13:01:50.591Z,100824.00
2022-09-27T13:04:47.928Z,100822.00
2022-09-27T13:07:36.569Z,100819.00
2022-09-27T13:10:41.597Z,100826.00
2022-09-27T13:13:26.671Z,100818.00
2022-09-27T13:16:00.473Z,100820.00
2022-09-27T13:18:56.075Z,100822.00
2022-09-27T13:22:00.798Z,100829.00
2022-09-27T13:24:51.144Z,100817.00
2022-09-27T13:27:43.809Z,100815.00
2022-09-27T13:30:49.156Z,100821.00
2022-09-27T13:33:47.657Z,100819.00
2022-09-27T13:36:33.880Z,100821.00
2022-09-27T13:39:22.815Z,100820.00
2022-09-27T13:42:32.759Z,100826.00
2022-09-27T13:45:24.294Z,100825.00
2022-09-27T13:47:58.996Z,100826.00
2022-09-27T13:50:51.287Z,100822.00
2022-09-27T13:53:30.956Z,100817.00
2022-09-27T13:56:00.606Z,100819.00
2022-09-27T13:58:49.439Z,100812.00
2022-09-27T14:01:50.719Z,100816.00
2022-09-27T14:04:31.048Z,100815.00
2022-09-27T14:07:02.676Z,100816.00
2022-09-27T14:09:36.045Z,100814.00
2022-09-27T14:12:26.410Z,100819.00
2022-09-27T14:14:58.312Z,100813.00
2022-09-27T14:17:31.348Z,100817.00
2022-09-27T14:20:01.443Z,100813.00
2022-09-27T14:22:34.901Z,100815.00
2022-09-27T14:25:18.483Z,100814.00
2022-09-27T14:27:50.478Z,100816.00
2022-09-27T14:30:31.554Z,100810.00
2022-09-27T14:33:34.372Z,100815.00
2022-09-27T14:36:45.634Z,100815.00
2022-09-27T14:39:22.814Z,100816.00
2022-09-27T14:41:54.167Z,100817.00
2022-09-27T14:44:27.442Z,100820.00
2022-09-27T14:47:12.238Z,100828.00
2022-09-27T14:49:52.385Z,100825.00
2022-09-27T14:52:27.940Z,100825.00
2022-09-27T14:55:05.044Z,100820.00
2022-09-27T14:57:40.138Z,100825.00
2022-09-27T15:00:20.904Z,100816.00
2022-09-27T15:02:54.432Z,100823.00
2022-09-27T15:05:32.255Z,100813.00
2022-09-27T15:08:10.922Z,100818.00
2022-09-27T15:10:43.441Z,100819.00
2022-09-27T15:13:18.828Z,100817.00
2022-09-27T15:15:49.953Z,100824.00
2022-09-27T15:18:42.647Z,100818.00
2022-09-27T15:21:17.313Z,100821.00
2022-09-27T15:23:49.369Z,100830.00
2022-09-27T15:26:27.321Z,100820.00
2022-09-27T15:28:57.101Z,100820.00
2022-09-27T15:31:31.718Z,100831.00
2022-09-27T15:34:06.190Z,100823.00
2022-09-27T15:37:08.459Z,100827.00
2022-09-27T15:39:43.003Z,100830.00
2022-09-27T15:42:14.773Z,100825.00
2022-09-27T15:44:50.518Z,100829.00
2022-09-27T15:47:53.597Z,100824.00
2022-09-27T15:50:42.315Z,100825.00
2022-09-27T15:53:13.421Z,100829.00
2022-09-27T15:55:53.573Z,100828.00
2022-09-27T15:58:27.089Z,100829.00
2022-09-27T16:01:02.603Z,100832.00
2022-09-27T16:03:36.043Z,100826.00
2022-09-27T16:06:08.064Z,100823.00
2022-09-27T16:08:40.000Z,100827.00
2022-09-27T16:11:13.824Z,100827.00
2022-09-27T16:13:43.125Z,100826.00
2022-09-27T16:16:22.237Z,100822.00
2022-09-27T16:19:05.401Z,100824.00
2022-09-27T16:24:39.054Z,100826.00
2022-09-27T16:27:08.540Z,100831.00
2022-09-27T16:29:44.345Z,100828.00
2022-09-27T16:32:14.559Z,100831.00
2022-09-27T16:34:48.957Z,100831.00
2022-09-27T16:37:21.484Z,100835.00
2022-09-27T16:39:53.160Z,100828.00
2022-09-27T16:42:23.595Z,100827.00
2022-09-27T16:45:07.389Z,100833.00
2022-09-27T16:47:39.832Z,100833.00
2022-09-27T16:50:36.070Z,100836.00
2022-09-27T16:53:06.225Z,100849.00
2022-09-27T16:55:37.919Z,100836.00
2022-09-27T16:58:08.821Z,100836.00
2022-09-27T17:00:42.277Z,100844.00
2022-09-27T17:03:17.773Z,100844.00
2022-09-27T17:06:24.457Z,100839.00
2022-09-27T17:08:55.884Z,100839.00
2022-09-27T17:11:26.327Z,100832.00
2022-09-27T17:13:59.003Z,100834.00
2022-09-27T17:16:55.051Z,100839.00
2022-09-27T17:19:43.497Z,100843.00
2022-09-27T17:22:15.386Z,100844.00
2022-09-27T17:24:44.126Z,100849.00
2022-09-27T17:27:25.732Z,100851.00
2022-09-27T17:30:00.665Z,100853.00
2022-09-27T17:32:30.064Z,100848.00
2022-09-27T17:35:15.185Z,100854.00
2022-09-27T17:37:45.887Z,100852.00
2022-09-27T17:40:20.958Z,100854.00
2022-09-27T17:42:58.380Z,100850.00
2022-09-27T17:45:29.379Z,100860.00
2022-09-27T17:48:16.996Z,100854.00
2022-09-27T17:53:42.724Z,100859.00
2022-09-27T17:56:19.566Z,100852.00
2022-09-27T17:58:58.299Z,100845.00
2022-09-27T18:01:31.896Z,100855.00
2022-09-27T18:04:06.276Z,100849.00
2022-09-27T18:06:40.584Z,100860.00
2022-09-27T18:09:16.596Z,100864.00
2022-09-27T18:11:48.484Z,100863.00
2022-09-27T18:14:25.375Z,100868.00
2022-09-27T18:17:13.915Z,100863.00
2022-09-27T18:20:00.209Z,100854.00
2022-09-27T18:22:31.822Z,100861.00
2022-09-27T18:25:26.584Z,100852.00
2022-09-27T18:28:02.799Z,100859.00
2022-09-27T18:31:02.251Z,100856.00
2022-09-27T18:33:55.437Z,100853.00
2022-09-27T18:36:28.725Z,100854.00
2022-09-27T18:39:01.242Z,100860.00
2022-09-27T18:41:34.617Z,100855.00
2022-09-27T18:44:07.428Z,100857.00
2022-09-27T18:46:40.150Z,100857.00
2022-09-27T18:49:12.960Z,100844.00
2022-09-27T18:51:49.875Z,100856.00
2022-09-27T18:54:23.989Z,100855.00
2022-09-27T18:56:58.171Z,100859.00
2022-09-27T18:59:29.458Z,100852.00
2022-09-27T19:02:04.218Z,100851.00
2022-09-27T19:04:34.806Z,100850.00
2022-09-27T19:07:10.327Z,100854.00
2022-09-27T19:09:40.009Z,100853.00
2022-09-27T19:12:10.672Z,100849.00
2022-09-27T19:14:42.124Z,100862.00
2022-09-27T19:17:20.029Z,100847.00
2022-09-27T19:19:50.920Z,100851.00
2022-09-27T19:22:39.762Z,100851.00
2022-09-27T19:25:11.538Z,100844.00
2022-09-27T19:28:35.908Z,100837.00
2022-09-27T19:34:06.971Z,100846.00
2022-09-27T19:36:36.838Z,100839.00
2022-09-27T19:39:08.415Z,100848.00
2022-09-27T19:41:37.824Z,100838.00
2022-09-27T19:44:11.335Z,100826.00
2022-09-27T19:46:41.941Z,100847.00
2022-09-27T19:49:15.270Z,100846.00
2022-09-27T19:51:47.177Z,100848.00
2022-09-27T19:54:17.988Z,100839.00
2022-09-27T19:56:50.839Z,100843.00
2022-09-27T19:59:24.970Z,100855.00
2022-09-27T20:02:11.222Z,100839.00
2022-09-27T20:04:53.870Z,100844.00
2022-09-27T20:07:25.623Z,100843.00
2022-09-27T20:10:18.602Z,100839.00
2022-09-27T20:13:00.924Z,100838.00
2022-09-27T20:15:39.422Z,100836.00
2022-09-27T20:18:21.500Z,100836.00
2022-09-27T20:20:55.928Z,100832.00
2022-09-27T20:23:25.485Z,100844.00
2022-09-27T20:25:54.244Z,100838.00
2022-09-27T20:28:27.979Z,100838.00
2022-09-27T20:31:08.958Z,100838.00
2022-09-27T20:33:46.644Z,100844.00
2022-09-27T20:36:20.596Z,100836.00
2022-09-27T20:38:51.580Z,100835.00
2022-09-27T20:41:23.477Z,100835.00
2022-09-27T20:44:06.667Z,100835.00
2022-09-27T20:46:37.799Z,100844.00
2022-09-27T20:49:08.989Z,100843.00
2022-09-27T20:51:41.832Z,100843.00
2022-09-27T20:54:18.283Z,100846.00
2022-09-27T20:56:50.438Z,100850.00
2022-09-27T20:59:22.228Z,100852.00
2022-09-27T21:01:53.940Z,100859.00
2022-09-27T21:04:30.346Z,100854.00
2022-09-27T21:07:03.597Z,100861.00
2022-09-27T21:09:32.934Z,100856.00
2022-09-27T21:12:02.168Z,100855.00
2022-09-27T21:14:30.949Z,100859.00
2022-09-27T21:17:01.953Z,100856.00
2022-09-27T21:19:35.055Z,100856.00
2022-09-27T21:22:05.340Z,100859.00
2022-09-27T21:24:35.559Z,100855.00
2022-09-27T21:27:04.520Z,100854.00
2022-09-27T21:29:33.381Z,100853.00
2022-09-27T21:32:03.345Z,100854.00
2022-09-27T21:34:32.473Z,100851.00
2022-09-27T21:37:03.252Z,100851.00
2022-09-27T21:39:33.586Z,100858.00
2022-09-27T21:42:04.275Z,100857.00
2022-09-27T21:44:38.910Z,100855.00
2022-09-27T21:47:08.065Z,100850.00
2022-09-27T21:49:37.742Z,100846.00
2022-09-27T21:52:06.850Z,100852.00
2022-09-27T21:54:36.971Z,100846.00
2022-09-27T21:57:05.741Z,100839.00
2022-09-27T21:59:35.708Z,100844.00
2022-09-27T22:02:04.623Z,100839.00
2022-09-27T22:04:33.594Z,100838.00
2022-09-27T22:07:02.580Z,100829.00
2022-09-27T22:09:31.588Z,100834.00
2022-09-27T22:12:02.540Z,100833.00
2022-09-27T22:14:31.566Z,100822.00
2022-09-27T22:17:00.629Z,100834.00
2022-09-27T22:19:29.353Z,100838.00
2022-09-27T22:21:58.701Z,100830.00
2022-09-27T22:24:27.328Z,100826.00
2022-09-27T22:26:56.372Z,100822.00
2022-09-27T22:29:28.871Z,100822.00
2022-09-27T22:31:57.601Z,100819.00
2022-09-27T22:34:29.948Z,100815.00
2022-09-27T22:37:00.876Z,100814.00
2022-09-27T22:39:30.125Z,100815.00
2022-09-27T22:41:58.807Z,100821.00
2022-09-27T22:44:28.926Z,100815.00
2022-09-27T22:46:57.619Z,100814.00
2022-09-27T22:49:26.417Z,100811.00
2022-09-27T22:51:55.268Z,100815.00
2022-09-27T22:54:23.950Z,100802.00
2022-09-27T22:56:57.465Z,100809.00
2022-09-27T22:59:28.258Z,100808.00
2022-09-27T23:01:57.722Z,100809.00
2022-09-27T23:04:26.507Z,100805.00
2022-09-27T23:06:55.222Z,100805.00
2022-09-27T23:09:24.743Z,100806.00
2022-09-27T23:11:53.852Z,100804.00
2022-09-27T23:14:23.454Z,100802.00
2022-09-27T23:16:53.659Z,100803.00
2022-09-27T23:19:23.553Z,100798.00
2022-09-27T23:21:52.322Z,100797.00
2022-09-27T23:24:21.324Z,100793.00
2022-09-27T23:27:10.179Z,100789.00
2022-09-27T23:29:39.286Z,100788.00
2022-09-27T23:32:09.519Z,100797.00
2022-09-27T23:34:38.859Z,100797.00
2022-09-27T23:37:07.702Z,100788.00
2022-09-27T23:39:36.364Z,100790.00
2022-09-27T23:42:06.631Z,100795.00
2022-09-27T23:44:35.830Z,100793.00
2022-09-27T23:47:04.629Z,100787.00
2022-09-27T23:49:34.942Z,100790.00
2022-09-27T23:52:22.512Z,100790.00
2022-09-27T23:54:51.398Z,100784.00
2022-09-27T23:57:38.990Z,100779.00
